createdAt,value
2022-12-19T07:37:35.745Z,37.05
2022-12-19T07:40:32.758Z,37.70
2022-12-19T07:43:17.152Z,39.13
2022-12-19T07:48:55.364Z,39.72
2022-12-19T07:51:34.424Z,40.38
2022-12-19T07:54:31.046Z,44.17
2022-12-19T08:00:17.130Z,42.05
2022-12-19T08:03:08.602Z,42.20
2022-12-19T08:05:57.793Z,46.33
2022-12-19T08:09:06.604Z,46.08
2022-12-19T08:11:56.532Z,37.83
2022-12-19T08:14:57.456Z,39.78
2022-12-19T08:34:16.767Z,43.65
2022-12-19T08:40:54.122Z,38.85
2022-12-19T12:32:03.188Z,37.50
2022-12-19T12:43:02.475Z,38.30
2022-12-19T12:46:00.186Z,62.88
2022-12-19T12:48:36.800Z,42.38
2022-12-19T12:54:08.984Z,40.93
2022-12-19T12:56:55.499Z,38.85
2022-12-19T12:59:42.485Z,44.63
2022-12-19T13:02:31.102Z,41.75
2022-12-19T13:05:07.511Z,41.63
2022-12-19T13:07:43.736Z,44.42
2022-12-19T13:10:35.762Z,41.80
2022-12-19T13:13:21.137Z,39.13
2022-12-19T13:16:08.390Z,39.10
2022-12-19T13:22:11.905Z,39.95
2022-12-19T13:25:05.233Z,41.28
2022-12-19T13:27:52.607Z,38.33
2022-12-19T13:31:11.699Z,40.03
2022-12-19T13:34:15.746Z,39.83
2022-12-19T13:39:59.201Z,40.65
2022-12-19T13:40:11.203Z,40.03
2022-12-19T13:43:10.801Z,42.50
2022-12-19T13:45:49.153Z,44.53
2022-12-19T13:48:40.183Z,44.38
2022-12-19T13:51:19.913Z,88.00
2022-12-19T13:53:59.335Z,91.57
2022-12-19T13:56:34.977Z,83.38
2022-12-19T13:59:11.775Z,67.25
2022-12-19T14:01:48.542Z,69.22
2022-12-19T14:04:28.286Z,114.18
2022-12-19T14:07:09.401Z,82.10
2022-12-19T14:11:32.927Z,61.47
2022-12-19T14:13:51.071Z,47.25
2022-12-19T14:15:39.644Z,42.47
2022-12-19T14:18:43.572Z,40.30
2022-12-19T14:22:05.974Z,40.97
2022-12-19T14:24:11.201Z,40.60
2022-12-19T14:28:20.603Z,37.97
2022-12-19T14:30:19.901Z,44.78
2022-12-19T14:33:44.124Z,40.42
2022-12-19T14:36:10.777Z,39.05
2022-12-19T14:39:19.822Z,41.20
2022-12-19T14:41:07.823Z,38.65
2022-12-19T14:43:59.462Z,47.70
2022-12-19T14:52:25.933Z,49.58
2022-12-19T14:54:08.630Z,47.10
2022-12-19T14:54:27.813Z,47.45
2022-12-19T14:56:16.461Z,37.83
2022-12-19T15:01:24.252Z,45.03
2022-12-19T15:04:51.240Z,40.15
2022-12-19T15:07:07.234Z,37.42
2022-12-19T15:11:05.087Z,39.58
2022-12-19T15:14:48.422Z,43.13
2022-12-19T15:15:48.196Z,39.30
2022-12-19T15:18:23.820Z,43.13
2022-12-19T15:20:53.185Z,41.67
2022-12-19T15:23:22.995Z,52.55
2022-12-19T15:26:08.652Z,78.72
2022-12-19T15:28:42.471Z,66.60
2022-12-19T15:31:27.995Z,85.30
2022-12-19T15:36:47.038Z,52.05
2022-12-19T15:39:16.562Z,45.25
2022-12-19T15:41:48.890Z,70.40
2022-12-19T15:44:18.534Z,63.13
2022-12-19T15:46:52.132Z,79.68
2022-12-19T15:49:23.331Z,56.67
2022-12-19T15:51:53.414Z,48.88
2022-12-19T15:57:19.908Z,54.08
2022-12-19T15:59:48.928Z,53.95
2022-12-19T16:02:20.318Z,69.22
2022-12-19T16:04:56.887Z,57.45
2022-12-19T16:07:34.916Z,52.63
2022-12-19T16:10:03.979Z,48.28
2022-12-19T16:12:42.059Z,45.63
2022-12-19T16:15:16.956Z,47.75
2022-12-19T16:17:46.819Z,47.65
2022-12-19T16:20:21.298Z,49.95
2022-12-19T16:22:52.300Z,49.75
2022-12-19T16:25:23.562Z,54.25
2022-12-19T16:27:58.469Z,52.65
2022-12-19T16:30:33.874Z,50.47
2022-12-19T16:33:02.860Z,52.20
2022-12-19T16:36:02.967Z,54.22
2022-12-19T16:38:41.453Z,49.42
2022-12-19T16:41:23.630Z,46.20
2022-12-19T16:44:03.300Z,43.53
2022-12-19T16:46:34.673Z,41.97
2022-12-19T16:49:16.695Z,45.08
2022-12-19T16:51:51.627Z,45.33
2022-12-19T16:54:21.135Z,49.35
2022-12-19T16:56:52.795Z,43.30
2022-12-19T16:59:36.250Z,52.67
2022-12-19T17:02:17.315Z,63.95
2022-12-19T17:04:52.123Z,63.10
2022-12-19T17:07:27.204Z,55.35
2022-12-19T17:09:56.199Z,54.25
2022-12-19T17:12:27.136Z,57.65
2022-12-19T17:14:56.238Z,57.85
2022-12-19T17:17:24.969Z,57.25
2022-12-19T17:19:55.762Z,54.08
2022-12-19T17:22:30.317Z,57.65
2022-12-19T17:25:38.385Z,61.10
2022-12-19T17:28:10.843Z,43.83
2022-12-19T17:30:41.911Z,40.08
2022-12-19T17:33:19.907Z,42.30
2022-12-19T17:36:18.264Z,47.15
2022-12-19T17:38:51.922Z,46.47
2022-12-19T17:41:43.933Z,56.17
2022-12-19T17:44:13.368Z,56.55
2022-12-19T17:46:49.673Z,51.10
2022-12-19T17:49:36.139Z,50.03
2022-12-19T17:52:08.271Z,47.75
2022-12-19T17:54:38.771Z,47.97
2022-12-19T17:57:07.797Z,44.75
2022-12-19T17:59:48.172Z,46.05
2022-12-19T18:02:44.342Z,45.50
2022-12-19T18:05:22.500Z,43.17
2022-12-19T18:07:59.072Z,43.60
2022-12-19T18:13:37.282Z,45.80
2022-12-19T18:16:15.167Z,48.67
2022-12-19T18:18:51.787Z,46.08
2022-12-19T18:21:28.496Z,50.55
2022-12-19T18:24:03.048Z,41.35
2022-12-19T18:26:47.855Z,50.97
2022-12-19T18:29:24.290Z,48.03
2022-12-19T18:32:07.412Z,58.30
2022-12-19T18:40:44.098Z,53.50
2022-12-19T18:43:20.941Z,50.80
2022-12-19T18:45:54.558Z,55.72
2022-12-19T18:48:32.001Z,53.35
2022-12-19T18:51:11.604Z,49.70
2022-12-19T18:53:46.568Z,51.20
2022-12-19T18:56:42.968Z,43.20
2022-12-19T18:59:37.363Z,43.20
2022-12-19T19:08:11.983Z,44.92
2022-12-19T19:14:43.799Z,47.95
2022-12-19T19:17:33.122Z,46.38
2022-12-19T19:20:18.450Z,46.75
2022-12-19T19:23:35.039Z,53.20
2022-12-19T19:26:44.911Z,47.25
2022-12-19T19:33:04.650Z,60.20
2022-12-19T19:36:12.352Z,60.17
2022-12-19T19:42:26.360Z,57.20
2022-12-19T20:02:58.249Z,56.35
2022-12-19T20:26:52.449Z,49.53
